地図

経路データ

SID SEASON NUMBER BASIN SUBBASIN NAME ISO_TIME NATURE LAT LON WMO_WIND WMO_PRES WMO_AGENCY TRACK_TYPE DIST2LAND LANDFALL IFLAG USA_AGENCY USA_ATCF_ID USA_LAT USA_LON USA_RECORD USA_STATUS USA_WIND USA_PRES USA_SSHS USA_R34_NE USA_R34_SE USA_R34_SW USA_R34_NW USA_R50_NE USA_R50_SE USA_R50_SW USA_R50_NW USA_R64_NE USA_R64_SE USA_R64_SW USA_R64_NW USA_POCI USA_ROCI USA_RMW USA_EYE TOKYO_LAT TOKYO_LON TOKYO_GRADE TOKYO_WIND TOKYO_PRES TOKYO_R50_DIR TOKYO_R50_LONG TOKYO_R50_SHORT TOKYO_R30_DIR TOKYO_R30_LONG TOKYO_R30_SHORT TOKYO_LAND CMA_LAT CMA_LON CMA_CAT CMA_WIND CMA_PRES HKO_LAT HKO_LON HKO_CAT HKO_WIND HKO_PRES NEWDELHI_LAT NEWDELHI_LON NEWDELHI_GRADE NEWDELHI_WIND NEWDELHI_PRES NEWDELHI_CI NEWDELHI_DP NEWDELHI_POCI REUNION_LAT REUNION_LON REUNION_TYPE REUNION_WIND REUNION_PRES REUNION_TNUM REUNION_CI REUNION_RMW REUNION_R34_NE REUNION_R34_SE REUNION_R34_SW REUNION_R34_NW REUNION_R50_NE REUNION_R50_SE REUNION_R50_SW REUNION_R50_NW REUNION_R64_NE REUNION_R64_SE REUNION_R64_SW REUNION_R64_NW BOM_LAT BOM_LON BOM_TYPE BOM_WIND BOM_PRES BOM_TNUM BOM_CI BOM_RMW BOM_R34_NE BOM_R34_SE BOM_R34_SW BOM_R34_NW BOM_R50_NE BOM_R50_SE BOM_R50_SW BOM_R50_NW BOM_R64_NE BOM_R64_SE BOM_R64_SW BOM_R64_NW BOM_ROCI BOM_POCI BOM_EYE BOM_POS_METHOD BOM_PRES_METHOD NADI_LAT NADI_LON NADI_CAT NADI_WIND NADI_PRES WELLINGTON_LAT WELLINGTON_LON WELLINGTON_WIND WELLINGTON_PRES DS824_LAT DS824_LON DS824_STAGE DS824_WIND DS824_PRES TD9636_LAT TD9636_LON TD9636_STAGE TD9636_WIND TD9636_PRES TD9635_LAT TD9635_LON TD9635_WIND TD9635_PRES TD9635_ROCI NEUMANN_LAT NEUMANN_LON NEUMANN_CLASS NEUMANN_WIND NEUMANN_PRES MLC_LAT MLC_LON MLC_CLASS MLC_WIND MLC_PRES USA_GUST BOM_GUST BOM_GUST_PER REUNION_GUST REUNION_GUST_PER USA_SEAHGT USA_SEARAD_NE USA_SEARAD_SE USA_SEARAD_SW USA_SEARAD_NW STORM_SPEED STORM_DIR
1881039S12084 1881 4 SI MM NOT_NAMED 1881-02-07 18:00:00 NR -12.1000 84.4000 main 1979 1979 __________O___ -1 -12.1000 84.4000 7 17 245
1881039S12084 1881 4 SI MM NOT_NAMED 1881-02-07 21:00:00 NR -12.4539 83.6320 main 2076 2076 __________P___ -1 -12.4539 83.6320 7 16 245
1881039S12084 1881 4 SI MM NOT_NAMED 1881-02-08 00:00:00 NR -12.7852 82.9000 main 2110 2109 __________P___ -1 -12.7852 82.9000 7 15 245
1881039S12084 1881 4 SI MM NOT_NAMED 1881-02-08 03:00:00 NR -13.0738 82.2430 main 2136 2135 __________P___ -1 -13.0738 82.2430 7 13 246
1881039S12084 1881 4 SI MM NOT_NAMED 1881-02-08 06:00:00 NR -13.3000 81.7000 main 2154 2153 __________O___ -1 -13.3000 81.7000 7 10 248
1881039S12084 1881 4 SI MM NOT_NAMED 1881-02-08 09:00:00 NR -13.4523 81.2953 main 2174 2173 __________P___ -1 -13.4523 81.2953 7 7 250
1881039S12084 1881 4 SI MM NOT_NAMED 1881-02-08 12:00:00 NR -13.5511 80.9939 main 2185 2184 __________P___ -1 -13.5511 80.9939 7 6 252
1881039S12084 1881 4 SI MM NOT_NAMED 1881-02-08 15:00:00 NR -13.6244 80.7456 main 2184 2184 __________P___ -1 -13.6244 80.7456 7 5 253
1881039S12084 1881 4 SI MM NOT_NAMED 1881-02-08 18:00:00 NR -13.7000 80.5000 main 2195 2195 __________O___ -1 -13.7000 80.5000 7 6 251
1881039S12084 1881 4 SI MM NOT_NAMED 1881-02-08 21:00:00 NR -13.8178 80.1781 main 2207 2207 __________P___ -1 -13.8178 80.1781 7 7 249
1881039S12084 1881 4 SI MM NOT_NAMED 1881-02-09 00:00:00 NR -13.9424 79.8500 main 2220 2220 __________P___ -1 -13.9424 79.8500 7 7 248
1881039S12084 1881 4 SI MM NOT_NAMED 1881-02-09 03:00:00 NR -14.0709 79.5218 main 2243 2243 __________P___ -1 -14.0709 79.5218 7 7 248
1881039S12084 1881 4 SI MM NOT_NAMED 1881-02-09 06:00:00 NR -14.2000 79.2000 main 2257 2257 __________O___ -1 -14.2000 79.2000 7 7 247
1881039S12084 1881 4 SI MM NOT_NAMED 1881-02-09 09:00:00 NR -14.3248 78.8967 main 2270 2270 __________P___ -1 -14.3248 78.8967 7 6 247
1881039S12084 1881 4 SI MM NOT_NAMED 1881-02-09 12:00:00 NR -14.4497 78.5998 main 2284 2264 __________P___ -1 -14.4497 78.5998 7 6 246
1881039S12084 1881 4 SI MM NOT_NAMED 1881-02-09 15:00:00 NR -14.5748 78.3030 main 2264 2230 __________P___ -1 -14.5748 78.3030 7 6 247
1881039S12084 1881 4 SI MM NOT_NAMED 1881-02-09 18:00:00 NR -14.7000 78.0000 main 2230 2196 __________O___ -1 -14.7000 78.0000 7 6 247
1881039S12084 1881 4 SI MM NOT_NAMED 1881-02-09 21:00:00 NR -14.8208 77.6901 main 2196 2161 __________P___ -1 -14.8208 77.6901 7 7 248
1881039S12084 1881 4 SI MM NOT_NAMED 1881-02-10 00:00:00 NR -14.9422 77.3722 main 2161 2124 __________P___ -1 -14.9422 77.3722 7 7 248
1881039S12084 1881 4 SI MM NOT_NAMED 1881-02-10 03:00:00 NR -15.0676 77.0432 main 2114 2079 __________P___ -1 -15.0676 77.0432 7 7 248
1881039S12084 1881 4 SI MM NOT_NAMED 1881-02-10 06:00:00 NR -15.2000 76.7000 main 2079 2035 __________O___ -1 -15.2000 76.7000 7 7 248
1881039S12084 1881 4 SI MM NOT_NAMED 1881-02-10 09:00:00 NR -15.3469 76.3272 main 2035 1998 __________P___ -1 -15.3469 76.3272 7 8 248
1881039S12084 1881 4 SI MM NOT_NAMED 1881-02-10 12:00:00 NR -15.5001 75.9426 main 1987 1953 __________P___ -1 -15.5001 75.9426 7 8 247
1881039S12084 1881 4 SI MM NOT_NAMED 1881-02-10 15:00:00 NR -15.6532 75.5616 main 1950 1906 __________P___ -1 -15.6532 75.5616 7 8 247
1881039S12084 1881 4 SI MM NOT_NAMED 1881-02-10 18:00:00 NR -15.8000 75.2000 main 1906 1872 __________O___ -1 -15.8000 75.2000 7 7 247
1881039S12084 1881 4 SI MM NOT_NAMED 1881-02-10 21:00:00 NR -15.9278 74.8782 main 1872 1838 __________P___ -1 -15.9278 74.8782 7 7 247
1881039S12084 1881 4 SI MM NOT_NAMED 1881-02-11 00:00:00 NR -16.0496 74.5771 main 1838 1800 __________P___ -1 -16.0496 74.5771 7 6 247
1881039S12084 1881 4 SI MM NOT_NAMED 1881-02-11 03:00:00 NR -16.1716 74.2876 main 1800 1767 __________P___ -1 -16.1716 74.2876 7 6 246
1881039S12084 1881 4 SI MM NOT_NAMED 1881-02-11 06:00:00 NR -16.3000 74.0000 main 1767 1733 __________O___ -1 -16.3000 74.0000 7 6 244
1881039S12084 1881 4 SI MM NOT_NAMED 1881-02-11 09:00:00 NR -16.4467 73.7000 main 1733 1696 __________P___ -1 -16.4467 73.7000 7 7 242
1881039S12084 1881 4 SI MM NOT_NAMED 1881-02-11 12:00:00 NR -16.5998 73.4000 main 1696 1662 __________P___ -1 -16.5998 73.4000 7 7 242
1881039S12084 1881 4 SI MM NOT_NAMED 1881-02-11 15:00:00 NR -16.7530 73.1000 main 1659 1625 __________P___ -1 -16.7530 73.1000 7 6 242
1881039S12084 1881 4 SI MM NOT_NAMED 1881-02-11 18:00:00 NR -16.9000 72.8000 main 1625 1591 __________O___ -1 -16.9000 72.8000 7 6 244
1881039S12084 1881 4 SI MM NOT_NAMED 1881-02-11 21:00:00 NR -17.0155 72.5278 main 1591 1568 __________P___ -1 -17.0155 72.5278 7 6 247
1881039S12084 1881 4 SI MM NOT_NAMED 1881-02-12 00:00:00 NR -17.1268 72.2516 main 1568 1534 __________P___ -1 -17.1268 72.2516 7 6 247
1881039S12084 1881 4 SI MM NOT_NAMED 1881-02-12 03:00:00 NR -17.2497 71.9496 main 1524 1487 __________P___ -1 -17.2497 71.9496 7 7 246
1881039S12084 1881 4 SI MM NOT_NAMED 1881-02-12 06:00:00 NR -17.4000 71.6000 main 1487 1440 __________O___ -1 -17.4000 71.6000 7 8 245
1881039S12084 1881 4 SI MM NOT_NAMED 1881-02-12 09:00:00 NR -17.5964 71.1795 main 1440 1384 __________P___ -1 -17.5964 71.1795 7 9 244
1881039S12084 1881 4 SI MM NOT_NAMED 1881-02-12 12:00:00 NR -17.8201 70.7101 main 1384 1327 __________P___ -1 -17.8201 70.7101 7 10 243
1881039S12084 1881 4 SI MM NOT_NAMED 1881-02-12 15:00:00 NR -18.0588 70.2106 main 1324 1268 __________P___ -1 -18.0588 70.2106 7 11 243
1881039S12084 1881 4 SI MM NOT_NAMED 1881-02-12 18:00:00 NR -18.3000 69.7000 main 1268 1212 __________O___ -1 -18.3000 69.7000 7 11 244
1881039S12084 1881 4 SI MM NOT_NAMED 1881-02-12 21:00:00 NR -18.5291 69.1868 main 1212 1156 __________P___ -1 -18.5291 69.1868 7 11 245
1881039S12084 1881 4 SI MM NOT_NAMED 1881-02-13 00:00:00 NR -18.7576 68.6700 main 1154 1098 __________P___ -1 -18.7576 68.6700 7 11 245
1881039S12084 1881 4 SI MM NOT_NAMED 1881-02-13 03:00:00 NR -18.9823 68.1681 main 1098 1043 __________P___ -1 -18.9823 68.1681 7 10 244
1881039S12084 1881 4 SI MM NOT_NAMED 1881-02-13 06:00:00 NR -19.2000 67.7000 main 1043 998 __________O___ -1 -19.2000 67.7000 7 9 243
1881039S12084 1881 4 SI MM NOT_NAMED 1881-02-13 09:00:00 NR -19.4105 67.2926 main 998 954 __________P___ -1 -19.4105 67.2926 7 8 241
1881039S12084 1881 4 SI MM NOT_NAMED 1881-02-13 12:00:00 NR -19.6141 66.9193 main 954 920 __________P___ -1 -19.6141 66.9193 7 8 240
1881039S12084 1881 4 SI MM NOT_NAMED 1881-02-13 15:00:00 NR -19.8106 66.5614 main 920 877 __________P___ -1 -19.8106 66.5614 7 8 240
1881039S12084 1881 4 SI MM NOT_NAMED 1881-02-13 18:00:00 NR -20.0000 66.2000 main 877 834 __________O___ -1 -20.0000 66.2000 7 8 242
1881039S12084 1881 4 SI MM NOT_NAMED 1881-02-13 21:00:00 NR -20.1735 65.8268 main 834 802 __________P___ -1 -20.1735 65.8268 7 8 244
1881039S12084 1881 4 SI MM NOT_NAMED 1881-02-14 00:00:00 NR -20.3417 65.4440 main 792 760 __________P___ -1 -20.3417 65.4440 7 8 245
1881039S12084 1881 4 SI MM NOT_NAMED 1881-02-14 03:00:00 NR -20.5140 65.0392 main 750 709 __________P___ -1 -20.5140 65.0392 7 9 246
1881039S12084 1881 4 SI MM NOT_NAMED 1881-02-14 06:00:00 NR -20.7000 64.6000 main 709 659 __________O___ -1 -20.7000 64.6000 7 10 246
1881039S12084 1881 4 SI MM NOT_NAMED 1881-02-14 09:00:00 NR -20.9108 64.1029 main 659 609 __________P___ -1 -20.9108 64.1029 7 11 246
1881039S12084 1881 4 SI MM NOT_NAMED 1881-02-14 12:00:00 NR -21.1353 63.5726 main 609 562 __________P___ -1 -21.1353 63.5726 7 11 245
1881039S12084 1881 4 SI MM NOT_NAMED 1881-02-14 15:00:00 NR -21.3670 63.0309 main 554 509 __________P___ -1 -21.3670 63.0309 7 11 245
1881039S12084 1881 4 SI MM NOT_NAMED 1881-02-14 18:00:00 NR -21.6000 62.5000 main 509 466 __________O___ -1 -21.6000 62.5000 7 11 244
1881039S12084 1881 4 SI MM NOT_NAMED 1881-02-14 21:00:00 NR -21.8287 61.9941 main 466 427 __________P___ -1 -21.8287 61.9941 7 10 244
1881039S12084 1881 4 SI MM NOT_NAMED 1881-02-15 00:00:00 NR -22.0571 61.5047 main 432 400 __________P___ -1 -22.0571 61.5047 7 10 243
1881039S12084 1881 4 SI MM NOT_NAMED 1881-02-15 03:00:00 NR -22.2820 61.0379 main 396 374 __________P___ -1 -22.2820 61.0379 7 9 242
1881039S12084 1881 4 SI MM NOT_NAMED 1881-02-15 06:00:00 NR -22.5000 60.6000 main 374 356 __________O___ -1 -22.5000 60.6000 7 9 242
1881039S12084 1881 4 SI MM NOT_NAMED 1881-02-15 09:00:00 NR -22.6983 60.2035 main 356 343 __________P___ -1 -22.6983 60.2035 7 8 241
1881039S12084 1881 4 SI MM NOT_NAMED 1881-02-15 12:00:00 NR -22.8915 59.8338 main 345 338 __________P___ -1 -22.8915 59.8338 7 8 240
1881039S12084 1881 4 SI MM NOT_NAMED 1881-02-15 15:00:00 NR -23.0890 59.4722 main 344 339 __________P___ -1 -23.0890 59.4722 7 8 239
1881039S12084 1881 4 SI MM NOT_NAMED 1881-02-15 18:00:00 NR -23.3000 59.1000 main 344 340 __________O___ -1 -23.3000 59.1000 7 9 238
1881039S12084 1881 4 SI MM NOT_NAMED 1881-02-15 21:00:00 NR -23.5397 58.6773 main 350 350 __________P___ -1 -23.5397 58.6773 7 9 238
1881039S12084 1881 4 SI MM NOT_NAMED 1881-02-16 00:00:00 NR -23.7926 58.2427 main 372 364 __________P___ -1 -23.7926 58.2427 7 9 237
1881039S12084 1881 4 SI MM NOT_NAMED 1881-02-16 03:00:00 NR -24.0491 57.8117 main 364 363 __________P___ -1 -24.0491 57.8117 7 9 237
1881039S12084 1881 4 SI MM NOT_NAMED 1881-02-16 06:00:00 NR -24.3000 57.4000 main 372 367 __________O___ -1 -24.3000 57.4000 7 9 236
1881039S12084 1881 4 SI MM NOT_NAMED 1881-02-16 09:00:00 NR -24.5316 57.0318 main 374 374 __________P___ -1 -24.5316 57.0318 7 8 235
1881039S12084 1881 4 SI MM NOT_NAMED 1881-02-16 12:00:00 NR -24.7567 56.6841 main 396 393 __________P___ -1 -24.7567 56.6841 7 8 234
1881039S12084 1881 4 SI MM NOT_NAMED 1881-02-16 15:00:00 NR -24.9785 56.3443 main 408 407 __________P___ -1 -24.9785 56.3443 7 8 234
1881039S12084 1881 4 SI MM NOT_NAMED 1881-02-16 18:00:00 NR -25.2000 56.0000 main 426 425 __________O___ -1 -25.2000 56.0000 7 8 235
1881039S12084 1881 4 SI MM NOT_NAMED 1881-02-16 21:00:00 NR -25.4235 55.6412 main 447 447 __________P___ -1 -25.4235 55.6412 7 8 236
1881039S12084 1881 4 SI MM NOT_NAMED 1881-02-17 00:00:00 NR -25.6486 55.2689 main 470 470 __________P___ -1 -25.6486 55.2689 7 8 236
1881039S12084 1881 4 SI MM NOT_NAMED 1881-02-17 03:00:00 NR -25.8744 54.8872 main 507 507 __________P___ -1 -25.8744 54.8872 7 8 237
1881039S12084 1881 4 SI MM NOT_NAMED 1881-02-17 06:00:00 NR -26.1000 54.5000 main 537 __________O___ -1 -26.1000 54.5000 7 8 237

IBTrACS Databaseについて

本データベースは、米国NOAAが公開する1842年以降の世界の熱帯低気圧のベストトラックデータアーカイブInternational Best Track Archive for Climate Stewardship (IBTrACS)を、ウェブで閲覧しやすい形式に変換したものです。

最終更新日:2021-10-08